Time;durP1;ratioP1;P1;durP2;ratioP2;P2;SDS_P1;SDS_P2;PMS_P1;PMS_P2;Temp;Humidity;BMP_temperature;BMP_pressure;BME280_temperature;BME280_humidity;BME280_pressure;Samples;Min_cycle;Max_cycle;Signal;HPM_P1;HPM_P2
2023/11/26 00:02:14;;;;;;;;;;;;;;;-144.99;100.00;52566.31;5027653;28;19982;-67
2023/11/26 00:04:40;;;;;;;;;;;;;;;-144.99;100.00;52656.00;5041552;28;19925;-67
2023/11/26 00:07:08;;;;;;;;;;;;;;;-144.99;100.00;52607.09;5041614;28;19936;-67
2023/11/26 00:09:35;;;;;;;;;;;;;;;-144.99;100.00;52631.53;5044828;28;19929;-67
2023/11/26 00:12:03;;;;;;;;;;;;;;;-144.99;100.00;52633.59;5045357;28;19961;-67
2023/11/26 00:14:30;;;;;;;;;;;;;;;-144.99;100.00;52600.97;5044257;28;19925;-67
2023/11/26 00:16:57;;;;;;;;;;;;;;;-144.99;100.00;52651.94;5041556;28;19929;-68
2023/11/26 00:19:24;;;;;;;;;;;;;;;-144.99;100.00;52619.31;5044613;28;19913;-68
2023/11/26 00:21:50;;;;;;;;;;;;;;;-144.99;100.00;52615.25;5044753;28;19956;-68
2023/11/26 00:24:18;;;;;;;;;;;;;;;-144.99;100.00;52613.19;5044870;28;19991;-67
2023/11/26 00:26:44;;;;;;;;;;;;;;;-144.99;100.00;52623.38;5046700;28;20238;-68
2023/11/26 00:29:11;;;;;;;;;;;;;;;-144.99;100.00;52594.84;5045407;28;19937;-65
2023/11/26 00:31:38;;;;;;;;;;;;;;;-144.99;100.00;52635.63;5045027;28;19972;-63
2023/11/26 00:34:04;;;;;;;;;;;;;;;-144.99;100.00;52615.25;5046551;28;19956;-65
2023/11/26 00:36:31;;;;;;;;;;;;;;;-144.99;100.00;52598.94;5045752;28;19925;-66
2023/11/26 00:38:58;;;;;;;;;;;;;;;-144.99;100.00;52598.94;5047454;28;19985;-68
2023/11/26 00:41:26;;;;;;;;;;;;;;;-144.99;100.00;52631.53;5031726;28;20486;-65
2023/11/26 00:43:52;;;;;;;;;;;;;;;-144.99;100.00;52619.31;5030097;28;20392;-65
2023/11/26 00:46:18;;;;;;;;;;;;;;;-144.99;100.00;52662.13;5032771;28;19961;-67
2023/11/26 00:48:45;;;;;;;;;;;;;;;-144.99;100.00;52609.13;5034226;28;19928;-67
2023/11/26 00:51:17;;;;;;;;;;;;;;;-144.99;100.00;52598.94;5035759;28;19929;-67
2023/11/26 00:53:44;;;;;;;;;;;;;;;-144.99;100.00;52607.09;5035898;28;19991;-65
2023/11/26 00:56:11;;;;;;;;;;;;;;;-144.99;100.00;52611.16;5033351;28;20413;-68
2023/11/26 00:58:38;;;;;;;;;;;;;;;-144.99;100.00;52613.19;5027433;28;19983;-68
2023/11/26 01:01:05;;;;;;;;;;;;;;;-144.99;100.00;52619.31;5040933;28;19951;-67
2023/11/26 01:03:32;;;;;;;;;;;;;;;-144.99;100.00;52619.31;5042717;28;19963;-68
2023/11/26 01:05:58;;;;;;;;;;;;;;;-144.99;100.00;52590.78;5045692;28;19999;-68
2023/11/26 01:08:25;;;;;;;;;;;;;;;-144.99;100.00;52635.63;5033275;28;20392;-65
2023/11/26 01:10:52;;;;;;;;;;;;;;;-144.99;100.00;52637.66;5025011;28;19929;-65
2023/11/26 01:13:18;;;;;;;;;;;;;;;-144.99;100.00;52623.38;5026915;28;19960;-65
2023/11/26 01:15:46;;;;;;;;;;;;;;;-144.99;100.00;52592.81;5026355;28;19972;-65
2023/11/26 01:18:12;;;;;;;;;;;;;;;-144.99;100.00;52639.69;5028180;28;20213;-68
2023/11/26 01:20:39;;;;;;;;;;;;;;;-144.99;100.00;52641.72;5027836;28;19929;-66
2023/11/26 01:23:05;;;;;;;;;;;;;;;-144.99;100.00;52598.94;5028034;28;19925;-66
2023/11/26 01:25:32;;;;;;;;;;;;;;;-144.99;100.00;52631.53;5036059;28;19930;-67
2023/11/26 01:27:58;;;;;;;;;;;;;;;-144.99;100.00;52615.25;5040586;28;19928;-66
2023/11/26 01:30:25;;;;;;;;;;;;;;;-144.99;100.00;52623.38;5037075;28;20048;-66
2023/11/26 01:32:52;;;;;;;;;;;;;;;-144.99;100.00;52607.09;5035716;28;20025;-67
2023/11/26 01:35:19;;;;;;;;;;;;;;;-144.99;100.00;52621.34;5027975;28;19984;-66
2023/11/26 01:37:46;;;;;;;;;;;;;;;-144.99;100.00;52619.31;5031246;28;19935;-67
2023/11/26 01:40:12;;;;;;;;;;;;;;;-144.99;100.00;52635.63;5027139;28;20488;-66
2023/11/26 01:42:41;;;;;;;;;;;;;;;-144.99;100.00;52643.78;5023031;28;19968;-67
2023/11/26 01:45:08;;;;;;;;;;;;;;;-144.99;100.00;52586.69;5027432;28;20299;-66
2023/11/26 01:47:35;;;;;;;;;;;;;;;-144.99;100.00;52647.84;4681017;28;10000370;-66
2023/11/26 01:50:03;;;;;;;;;;;;;;;-144.99;100.00;52621.34;5024567;28;20337;-66
2023/11/26 01:52:29;;;;;;;;;;;;;;;-144.99;100.00;52598.94;5025655;28;19929;-66
2023/11/26 01:54:56;;;;;;;;;;;;;;;-144.99;100.00;52643.78;5018973;28;20033;-66
2023/11/26 01:57:22;;;;;;;;;;;;;;;-144.99;100.00;52603.00;5023963;28;19993;-66
2023/11/26 01:59:49;;;;;;;;;;;;;;;-144.99;100.00;52639.69;5030773;28;19986;-65
2023/11/26 02:02:15;;;;;;;;;;;;;;;-144.99;100.00;52647.84;5028484;28;20475;-69
2023/11/26 02:04:43;;;;;;;;;;;;;;;-144.99;100.00;52631.53;5030511;28;19980;-69
2023/11/26 02:07:12;;;;;;;;;;;;;;;-144.99;100.00;52660.09;5028409;28;20256;-69
2023/11/26 02:09:38;;;;;;;;;;;;;;;-144.99;100.00;52600.97;5031525;28;20007;-70
2023/11/26 02:12:07;;;;;;;;;;;;;;;-144.99;100.00;52639.69;5023795;28;20070;-69
2023/11/26 02:14:34;;;;;;;;;;;;;;;-144.99;100.00;52651.94;5030617;28;19971;-68
2023/11/26 02:17:00;;;;;;;;;;;;;;;-144.99;100.00;52594.84;5028597;28;20003;-68
2023/11/26 02:19:37;;;;;;;;;;;;;;;-144.99;100.00;52600.97;5031399;28;20391;-68
2023/11/26 02:22:07;;;;;;;;;;;;;;;-144.99;100.00;52623.38;5030377;28;19925;-68
2023/11/26 02:24:38;;;;;;;;;;;;;;;-144.99;100.00;52635.63;5043325;22;19935;-62
2023/11/26 02:27:04;;;;;;;;;;;;;;;-144.99;100.00;52653.97;5040521;28;20394;-62
2023/11/26 02:29:31;;;;;;;;;;;;;;;-144.99;100.00;52631.53;5046548;28;19967;-62
2023/11/26 02:31:57;;;;;;;;;;;;;;;-144.99;100.00;52629.50;5045073;28;20502;-63
2023/11/26 02:34:24;;;;;;;;;;;;;;;-144.99;100.00;52623.38;5043363;28;19972;-63
2023/11/26 02:36:50;;;;;;;;;;;;;;;-144.99;100.00;52600.97;5040849;28;19971;-62
2023/11/26 02:39:18;;;;;;;;;;;;;;;-144.99;100.00;52615.25;5036338;28;19972;-62
2023/11/26 02:41:46;;;;;;;;;;;;;;;-144.99;100.00;52607.09;5041363;28;20024;-62
2023/11/26 02:44:12;;;;;;;;;;;;;;;-144.99;100.00;52629.50;5037858;28;20035;-62
2023/11/26 02:46:39;;;;;;;;;;;;;;;-144.99;100.00;52623.38;5037655;28;20037;-63
2023/11/26 02:49:08;;;;;;;;;;;;;;;-144.99;100.00;52609.13;5039297;28;19972;-63
2023/11/26 02:51:35;;;;;;;;;;;;;;;-144.99;100.00;52623.38;5044406;28;20023;-63
2023/11/26 02:54:01;;;;;;;;;;;;;;;-144.99;100.00;52643.78;5038734;28;19972;-62
2023/11/26 02:56:28;;;;;;;;;;;;;;;-144.99;100.00;52625.44;5039154;28;20122;-62
2023/11/26 02:58:55;;;;;;;;;;;;;;;-144.99;100.00;52619.31;5043114;28;19966;-62
2023/11/26 03:01:25;;;;;;;;;;;;;;;-144.99;100.00;52619.31;5037928;28;19925;-63
2023/11/26 03:03:51;;;;;;;;;;;;;;;-144.99;100.00;52664.16;5038720;28;19928;-62
2023/11/26 03:06:22;;;;;;;;;;;;;;;-144.99;100.00;52688.63;5038705;28;19932;-63
2023/11/26 03:08:50;;;;;;;;;;;;;;;-144.99;100.00;52639.69;5036858;28;19925;-63
2023/11/26 03:14:02;;;;;;;;;;;;;;;-144.99;100.00;52660.09;5038896;28;19935;-63
2023/11/26 03:16:28;;;;;;;;;;;;;;;-144.99;100.00;52615.25;5040731;28;19929;-63
2023/11/26 03:18:55;;;;;;;;;;;;;;;-144.99;100.00;52656.00;5040850;28;19928;-62
2023/11/26 03:21:26;;;;;;;;;;;;;;;-144.99;100.00;52607.09;5039301;28;20090;-61
2023/11/26 03:23:54;;;;;;;;;;;;;;;-144.99;100.00;52635.63;5037548;28;19925;-64
2023/11/26 03:26:25;;;;;;;;;;;;;;;-144.99;100.00;52582.63;5038895;28;19929;-64
2023/11/26 03:28:52;;;;;;;;;;;;;;;-144.99;100.00;52656.00;5043512;28;19932;-65
2023/11/26 03:31:21;;;;;;;;;;;;;;;-144.99;100.00;52615.25;5034762;28;20335;-64
2023/11/26 03:33:48;;;;;;;;;;;;;;;-144.99;100.00;52645.81;5039763;28;19940;-64
2023/11/26 03:36:15;;;;;;;;;;;;;;;-144.99;100.00;52619.31;5038308;28;20035;-63
2023/11/26 03:38:42;;;;;;;;;;;;;;;-144.99;100.00;52623.38;5036127;28;19964;-62
2023/11/26 03:41:08;;;;;;;;;;;;;;;-144.99;100.00;52635.63;5041469;28;19956;-61
2023/11/26 03:43:35;;;;;;;;;;;;;;;-144.99;100.00;52619.31;5040473;28;20071;-62
2023/11/26 03:46:01;;;;;;;;;;;;;;;-144.99;100.00;52656.00;5038126;28;19929;-61
2023/11/26 03:48:29;;;;;;;;;;;;;;;-144.99;100.00;52603.00;5040722;28;19929;-62
2023/11/26 03:50:56;;;;;;;;;;;;;;;-144.99;100.00;52637.66;5042992;28;20351;-61
2023/11/26 03:53:22;;;;;;;;;;;;;;;-144.99;100.00;52635.63;5041332;28;19935;-62
2023/11/26 03:55:49;;;;;;;;;;;;;;;-144.99;100.00;52619.31;5037298;28;20190;-61
2023/11/26 03:58:16;;;;;;;;;;;;;;;-144.99;100.00;52588.75;5043332;28;19925;-62
2023/11/26 04:00:42;;;;;;;;;;;;;;;-144.99;100.00;52641.72;5041653;28;19925;-59
2023/11/26 04:03:09;;;;;;;;;;;;;;;-144.99;100.00;52578.53;5043720;28;19952;-60
2023/11/26 04:05:36;;;;;;;;;;;;;;;-144.99;100.00;52643.78;5039207;28;19986;-65
2023/11/26 04:08:03;;;;;;;;;;;;;;;-144.99;100.00;52639.69;5045068;28;20028;-65
2023/11/26 04:10:29;;;;;;;;;;;;;;;-144.99;100.00;52586.69;5036280;28;19960;-67
2023/11/26 04:12:56;;;;;;;;;;;;;;;-144.99;100.00;52623.38;5040816;28;19982;-66
2023/11/26 04:15:23;;;;;;;;;;;;;;;-144.99;100.00;52586.69;5040180;28;20176;-68
2023/11/26 04:17:49;;;;;;;;;;;;;;;-144.99;100.00;52607.09;5041594;28;20480;-66
2023/11/26 04:20:16;;;;;;;;;;;;;;;-144.99;100.00;52607.09;5049080;28;20144;-67
2023/11/26 04:22:43;;;;;;;;;;;;;;;-144.99;100.00;52623.38;5049192;28;19925;-63
2023/11/26 04:25:10;;;;;;;;;;;;;;;-144.99;100.00;52629.50;5041861;28;19933;-64
2023/11/26 04:27:37;;;;;;;;;;;;;;;-144.99;100.00;52664.16;5045583;28;19947;-63
2023/11/26 04:30:04;;;;;;;;;;;;;;;-144.99;100.00;52588.75;5049487;28;19936;-67
2023/11/26 04:32:31;;;;;;;;;;;;;;;-144.99;100.00;52600.97;5040572;28;19929;-67
2023/11/26 04:34:58;;;;;;;;;;;;;;;-144.99;100.00;52590.78;5039555;28;19936;-67
2023/11/26 04:37:24;;;;;;;;;;;;;;;-144.99;100.00;52603.00;5043534;28;19948;-67
2023/11/26 04:39:52;;;;;;;;;;;;;;;-144.99;100.00;52625.44;5057236;28;19990;-67
2023/11/26 04:42:19;;;;;;;;;;;;;;;-144.99;100.00;52637.66;5058923;28;20072;-67
2023/11/26 04:44:45;;;;;;;;;;;;;;;-144.99;100.00;52607.09;5058834;28;19932;-68
2023/11/26 04:47:12;;;;;;;;;;;;;;;-144.99;100.00;52611.16;5051833;28;20000;-67
2023/11/26 04:49:38;;;;;;;;;;;;;;;-144.99;100.00;52611.16;5059558;28;19925;-68
2023/11/26 04:52:05;;;;;;;;;;;;;;;-144.99;100.00;52590.78;5055336;28;20425;-67
2023/11/26 04:54:32;;;;;;;;;;;;;;;-144.99;100.00;52635.63;5063551;28;20402;-68
2023/11/26 04:56:58;;;;;;;;;;;;;;;-144.99;100.00;52607.09;5050118;28;19956;-67
2023/11/26 04:59:26;;;;;;;;;;;;;;;-144.99;100.00;52615.25;5055102;28;19929;-67
2023/11/26 05:01:55;;;;;;;;;;;;;;;-144.99;100.00;52574.47;5047813;28;19925;-63
2023/11/26 05:04:22;;;;;;;;;;;;;;;-144.99;100.00;52586.69;5043460;28;19925;-61
2023/11/26 05:06:49;;;;;;;;;;;;;;;-144.99;100.00;52643.78;5044731;28;19928;-62
2023/11/26 05:09:16;;;;;;;;;;;;;;;-144.99;100.00;52631.53;5042236;28;20430;-63
2023/11/26 05:11:43;;;;;;;;;;;;;;;-144.99;100.00;52631.53;5042872;28;20271;-64
2023/11/26 05:14:11;;;;;;;;;;;;;;;-144.99;100.00;52603.00;5024004;28;19931;-64
2023/11/26 05:16:37;;;;;;;;;;;;;;;-144.99;100.00;52613.19;5041715;28;20095;-64
2023/11/26 05:19:04;;;;;;;;;;;;;;;-144.99;100.00;52631.53;5040683;28;19929;-64
2023/11/26 05:21:31;;;;;;;;;;;;;;;-144.99;100.00;52635.63;5041048;28;19968;-59
2023/11/26 05:23:57;;;;;;;;;;;;;;;-144.99;100.00;52621.34;5042463;28;19932;-60
2023/11/26 05:26:23;;;;;;;;;;;;;;;-144.99;100.00;52590.78;5037000;28;20472;-59
2023/11/26 05:28:50;;;;;;;;;;;;;;;-144.99;100.00;52600.97;5043703;28;20019;-59
2023/11/26 05:31:18;;;;;;;;;;;;;;;-144.99;100.00;52594.84;5044013;28;20287;-59
2023/11/26 05:33:45;;;;;;;;;;;;;;;-144.99;100.00;52641.72;5041157;28;19925;-58
2023/11/26 05:36:11;;;;;;;;;;;;;;;-144.99;100.00;52613.19;5036072;28;20382;-59
2023/11/26 05:38:38;;;;;;;;;;;;;;;-144.99;100.00;52611.16;5041533;28;20097;-67
2023/11/26 05:41:05;;;;;;;;;;;;;;;-144.99;100.00;52586.69;5042259;28;19984;-65
2023/11/26 05:43:33;;;;;;;;;;;;;;;-144.99;100.00;52613.19;5044374;28;20298;-65
2023/11/26 05:46:00;;;;;;;;;;;;;;;-144.99;100.00;52631.53;5041424;28;19925;-64
2023/11/26 05:48:27;;;;;;;;;;;;;;;-144.99;100.00;52635.63;5038604;28;19968;-64
2023/11/26 05:50:54;;;;;;;;;;;;;;;-144.99;100.00;52603.00;5038940;28;19925;-64
2023/11/26 05:53:20;;;;;;;;;;;;;;;-144.99;100.00;52615.25;5042065;28;19929;-64
2023/11/26 05:55:47;;;;;;;;;;;;;;;-144.99;100.00;52635.63;5038816;28;19935;-65
2023/11/26 05:58:14;;;;;;;;;;;;;;;-144.99;100.00;52600.97;5041697;28;19978;-65
2023/11/26 06:00:40;;;;;;;;;;;;;;;-144.99;100.00;52603.00;5040858;28;20016;-64
2023/11/26 06:03:07;;;;;;;;;;;;;;;-144.99;100.00;52615.25;5043013;28;20383;-64
2023/11/26 06:05:36;;;;;;;;;;;;;;;-144.99;100.00;52607.09;5038680;28;19928;-64
2023/11/26 06:08:02;;;;;;;;;;;;;;;-144.99;100.00;52631.53;5042139;28;19937;-64
2023/11/26 06:10:29;;;;;;;;;;;;;;;-144.99;100.00;52627.47;5043762;28;19983;-64
2023/11/26 06:12:56;;;;;;;;;;;;;;;-144.99;100.00;52600.97;5038191;28;19957;-65
2023/11/26 06:15:22;;;;;;;;;;;;;;;-144.99;100.00;52619.31;5040934;28;19929;-64
2023/11/26 06:17:50;;;;;;;;;;;;;;;-144.99;100.00;52603.00;5041308;28;20223;-64
2023/11/26 06:20:16;;;;;;;;;;;;;;;-144.99;100.00;52625.44;5020138;28;20036;-64
2023/11/26 06:22:44;;;;;;;;;;;;;;;-144.99;100.00;52578.53;5041083;28;20121;-66
2023/11/26 06:25:11;;;;;;;;;;;;;;;-144.99;100.00;52623.38;5052128;28;19925;-66
2023/11/26 06:27:38;;;;;;;;;;;;;;;-144.99;100.00;52570.38;5040711;28;19990;-65
2023/11/26 06:30:05;;;;;;;;;;;;;;;-144.99;100.00;52607.09;5043435;28;19929;-65
2023/11/26 06:32:31;;;;;;;;;;;;;;;-144.99;100.00;52594.84;5042552;28;19933;-65
2023/11/26 06:34:58;;;;;;;;;;;;;;;-144.99;100.00;52631.53;5033515;28;19929;-61
2023/11/26 06:37:25;;;;;;;;;;;;;;;-144.99;100.00;52582.63;5040582;28;19929;-60
2023/11/26 06:39:54;;;;;;;;;;;;;;;-144.99;100.00;52666.19;5039390;28;19929;-60
2023/11/26 06:42:20;;;;;;;;;;;;;;;-144.99;100.00;52615.25;5042889;28;20299;-60
2023/11/26 06:44:47;;;;;;;;;;;;;;;-144.99;100.00;52586.69;5041136;28;19952;-59
2023/11/26 06:47:14;;;;;;;;;;;;;;;-144.99;100.00;52613.19;5031720;28;19968;-60
2023/11/26 06:49:41;;;;;;;;;;;;;;;-144.99;100.00;52605.03;5044793;28;19947;-63
2023/11/26 06:52:07;;;;;;;;;;;;;;;-144.99;100.00;52594.84;5020802;28;19931;-63
2023/11/26 06:54:34;;;;;;;;;;;;;;;-144.99;100.00;52590.78;5036291;28;19929;-64
2023/11/26 06:57:02;;;;;;;;;;;;;;;-144.99;100.00;52590.78;5040314;28;20011;-64
2023/11/26 06:59:28;;;;;;;;;;;;;;;-144.99;100.00;52594.84;5038275;28;19947;-64
2023/11/26 07:01:54;;;;;;;;;;;;;;;-144.99;100.00;52619.31;5042500;28;20079;-64
2023/11/26 07:04:21;;;;;;;;;;;;;;;-144.99;100.00;52590.78;5038087;28;19968;-65
2023/11/26 07:06:47;;;;;;;;;;;;;;;-144.99;100.00;52596.88;5038517;28;19929;-65
2023/11/26 07:09:15;;;;;;;;;;;;;;;-144.99;100.00;52590.78;5039340;28;20036;-65
2023/11/26 07:11:41;;;;;;;;;;;;;;;-144.99;100.00;52627.47;5040504;28;19925;-64
2023/11/26 07:14:10;;;;;;;;;;;;;;;-144.99;100.00;52598.94;5037047;28;19929;-64
2023/11/26 07:16:37;;;;;;;;;;;;;;;-144.99;100.00;52598.94;5041758;28;19960;-64
2023/11/26 07:19:04;;;;;;;;;;;;;;;-144.99;100.00;52611.16;5039481;28;20024;-65
2023/11/26 07:21:30;;;;;;;;;;;;;;;-144.99;100.00;52578.53;5036468;28;20639;-64
2023/11/26 07:23:57;;;;;;;;;;;;;;;-144.99;100.00;52596.88;5040993;28;20387;-63
2023/11/26 07:26:25;;;;;;;;;;;;;;;-144.99;100.00;52578.53;5043961;28;19994;-65
2023/11/26 07:28:52;;;;;;;;;;;;;;;-144.99;100.00;52619.31;5040950;28;19932;-65
2023/11/26 07:31:21;;;;;;;;;;;;;;;-144.99;100.00;52586.69;5045908;28;20370;-64
2023/11/26 07:33:47;;;;;;;;;;;;;;;-144.99;100.00;52651.94;5041314;28;20395;-65
2023/11/26 07:36:16;;;;;;;;;;;;;;;-144.99;100.00;52621.34;5043077;28;19960;-64
2023/11/26 07:38:43;;;;;;;;;;;;;;;-144.99;100.00;52596.88;5039704;28;19971;-64
2023/11/26 07:41:10;;;;;;;;;;;;;;;-144.99;100.00;52609.13;5034626;28;20377;-64
2023/11/26 07:43:38;;;;;;;;;;;;;;;-144.99;100.00;52582.63;5041523;28;19925;-64
2023/11/26 07:46:05;;;;;;;;;;;;;;;-144.99;100.00;52611.16;5038512;28;20027;-64
2023/11/26 07:48:33;;;;;;;;;;;;;;;-144.99;100.00;52598.94;5039239;28;20030;-63
2023/11/26 07:50:59;;;;;;;;;;;;;;;-144.99;100.00;52627.47;5032580;28;19929;-63
2023/11/26 07:53:27;;;;;;;;;;;;;;;-144.99;100.00;52594.84;5038710;28;20012;-63
2023/11/26 07:55:56;;;;;;;;;;;;;;;-144.99;100.00;52619.31;5034611;28;19953;-63
2023/11/26 07:58:24;;;;;;;;;;;;;;;-144.99;100.00;52586.69;5037994;28;19924;-63
2023/11/26 08:00:50;;;;;;;;;;;;;;;-144.99;100.00;52588.75;5037575;28;19932;-62
2023/11/26 08:03:17;;;;;;;;;;;;;;;-144.99;100.00;52611.16;5037214;28;20115;-63
2023/11/26 08:05:44;;;;;;;;;;;;;;;-144.99;100.00;52596.88;5037257;28;19925;-62
2023/11/26 08:08:13;;;;;;;;;;;;;;;-144.99;100.00;52625.44;5042031;28;19951;-62
2023/11/26 08:10:39;;;;;;;;;;;;;;;-144.99;100.00;52619.31;5035869;28;20232;-63
2023/11/26 08:13:07;;;;;;;;;;;;;;;-144.99;100.00;52578.53;5038942;28;19928;-70
2023/11/26 08:15:34;;;;;;;;;;;;;;;-144.99;100.00;52590.78;5039185;28;19935;-70
2023/11/26 08:18:00;;;;;;;;;;;;;;;-144.99;100.00;52607.09;5035979;28;19929;-71
2023/11/26 08:20:28;;;;;;;;;;;;;;;-144.99;100.00;52611.16;5039150;28;19940;-70
2023/11/26 08:22:59;;;;;;;;;;;;;;;-144.99;100.00;52574.47;5042036;28;19967;-70
2023/11/26 08:25:29;;;;;;;;;;;;;;;-144.99;100.00;52574.47;5035981;28;20028;-71
2023/11/26 08:27:55;;;;;;;;;;;;;;;-144.99;100.00;52611.16;5041144;28;20051;-72
2023/11/26 08:30:31;;;;;;;;;;;;;;;-144.99;100.00;52562.25;5035504;28;19969;-70
2023/11/26 08:32:58;;;;;;;;;;;;;;;-144.99;100.00;52600.97;5032938;28;20401;-70
2023/11/26 08:35:26;;;;;;;;;;;;;;;-144.99;100.00;52568.34;5040319;28;19936;-70
2023/11/26 08:37:52;;;;;;;;;;;;;;;-144.99;100.00;52574.47;5043380;28;19924;-71
2023/11/26 08:40:20;;;;;;;;;;;;;;;-144.99;100.00;52570.38;5043372;28;20405;-71
2023/11/26 08:42:48;;;;;;;;;;;;;;;-144.99;100.00;52566.31;5033198;28;19925;-71
2023/11/26 08:45:14;;;;;;;;;;;;;;;-144.99;100.00;52598.94;5039837;28;19925;-72
2023/11/26 08:47:42;;;;;;;;;;;;;;;-144.99;100.00;52596.88;5037995;28;19941;-72
2023/11/26 08:50:09;;;;;;;;;;;;;;;-144.99;100.00;52619.31;5039553;28;19929;-73
2023/11/26 08:52:36;;;;;;;;;;;;;;;-144.99;100.00;52594.84;5047654;22;19984;-73
2023/11/26 08:55:04;;;;;;;;;;;;;;;-144.99;100.00;52590.78;5017149;28;20011;-74
2023/11/26 08:57:32;;;;;;;;;;;;;;;-144.99;100.00;52596.88;5019822;28;19929;-74
2023/11/26 08:59:58;;;;;;;;;;;;;;;-144.99;100.00;52611.16;5014531;28;19976;-73
2023/11/26 09:02:26;;;;;;;;;;;;;;;-144.99;100.00;52533.69;5013404;28;19995;-73
2023/11/26 09:04:52;;;;;;;;;;;;;;;-144.99;100.00;52623.38;5002897;28;19925;-73
2023/11/26 09:07:19;;;;;;;;;;;;;;;-144.99;100.00;52594.84;5000754;28;20032;-74
2023/11/26 09:09:45;;;;;;;;;;;;;;;-144.99;100.00;52600.97;5009371;28;20357;-74
2023/11/26 09:12:11;;;;;;;;;;;;;;;-144.99;100.00;52574.47;5003768;28;19929;-74
2023/11/26 09:14:39;;;;;;;;;;;;;;;-144.99;100.00;52590.78;5002977;28;19953;-73
2023/11/26 09:17:06;;;;;;;;;;;;;;;-144.99;100.00;52578.53;5005519;28;20028;-73
2023/11/26 09:19:33;;;;;;;;;;;;;;;-144.99;100.00;52619.31;5008861;28;19957;-73
2023/11/26 09:22:02;;;;;;;;;;;;;;;-144.99;100.00;52607.09;5012172;28;20378;-74
2023/11/26 09:24:29;;;;;;;;;;;;;;;-144.99;100.00;52592.81;5007131;28;19926;-74
2023/11/26 09:26:56;;;;;;;;;;;;;;;-144.99;100.00;52619.31;5012754;28;20037;-74
2023/11/26 09:29:22;;;;;;;;;;;;;;;-144.99;100.00;52590.78;5003371;28;19926;-73
2023/11/26 09:31:50;;;;;;;;;;;;;;;-144.99;100.00;52572.44;5001522;28;20186;-73
2023/11/26 09:34:17;;;;;;;;;;;;;;;-144.99;100.00;52598.94;5006866;28;20072;-73
2023/11/26 09:36:45;;;;;;;;;;;;;;;-144.99;100.00;52566.31;5011140;28;20475;-73
2023/11/26 09:39:12;;;;;;;;;;;;;;;-144.99;100.00;52584.66;4995083;28;19984;-74
2023/11/26 09:41:38;;;;;;;;;;;;;;;-144.99;100.00;52611.16;5005281;28;20547;-74
2023/11/26 09:44:06;;;;;;;;;;;;;;;-144.99;100.00;52586.69;5005997;28;19934;-73
2023/11/26 09:46:33;;;;;;;;;;;;;;;-144.99;100.00;52611.16;5011019;28;19925;-73
2023/11/26 09:49:02;;;;;;;;;;;;;;;-144.99;100.00;52580.59;5006010;28;19926;-74
2023/11/26 09:51:29;;;;;;;;;;;;;;;-144.99;100.00;52562.25;5014405;28;20266;-73
2023/11/26 09:53:55;;;;;;;;;;;;;;;-144.99;100.00;52533.69;5007246;28;20033;-73
2023/11/26 09:56:22;;;;;;;;;;;;;;;-144.99;100.00;52582.63;5003703;28;19960;-73
2023/11/26 09:58:48;;;;;;;;;;;;;;;-144.99;100.00;52582.63;5005601;28;19935;-73
2023/11/26 10:01:15;;;;;;;;;;;;;;;-144.99;100.00;52627.47;5000760;28;20452;-74
2023/11/26 10:03:57;;;;;;;;;;;;;;;-144.99;100.00;52588.75;4997559;28;19983;-74
2023/11/26 10:06:26;;;;;;;;;;;;;;;-144.99;100.00;52578.53;4997638;28;20023;-73
2023/11/26 10:08:52;;;;;;;;;;;;;;;-144.99;100.00;52615.25;5004469;28;20008;-73
2023/11/26 10:11:22;;;;;;;;;;;;;;;-144.99;100.00;52566.31;5001191;28;20028;-73
2023/11/26 10:13:49;;;;;;;;;;;;;;;-144.99;100.00;52627.47;4995184;28;19926;-74
2023/11/26 10:16:27;;;;;;;;;;;;;;;-144.99;100.00;52584.66;5005779;28;19951;-74
2023/11/26 10:18:54;;;;;;;;;;;;;;;-144.99;100.00;52562.25;4995539;28;19926;-73
2023/11/26 10:21:20;;;;;;;;;;;;;;;-144.99;100.00;52590.78;4999603;28;19925;-74
2023/11/26 10:23:49;;;;;;;;;;;;;;;-144.99;100.00;52574.47;5010416;28;19934;-75
2023/11/26 10:26:22;;;;;;;;;;;;;;;-144.99;100.00;52554.09;5007349;28;19929;-74
2023/11/26 10:29:08;;;;;;;;;;;;;;;-144.99;100.00;52560.19;5004409;28;19926;-74
2023/11/26 10:31:35;;;;;;;;;;;;;;;-144.99;100.00;52582.63;4998522;28;19945;-74
2023/11/26 10:34:08;;;;;;;;;;;;;;;-144.99;100.00;52590.78;5007365;28;20009;-75
2023/11/26 10:36:35;;;;;;;;;;;;;;;-144.99;100.00;52578.53;4995685;28;20413;-74
2023/11/26 10:39:04;;;;;;;;;;;;;;;-144.99;100.00;52584.66;5004588;28;19926;-74
2023/11/26 10:41:33;;;;;;;;;;;;;;;-144.99;100.00;52578.53;5001121;28;19949;-75
2023/11/26 10:44:00;;;;;;;;;;;;;;;-144.99;100.00;52611.16;5004072;28;20012;-75
2023/11/26 10:46:28;;;;;;;;;;;;;;;-144.99;100.00;52598.94;4996905;28;19929;-75
2023/11/26 10:48:56;;;;;;;;;;;;;;;-144.99;100.00;52603.00;4989601;28;19930;-74
2023/11/26 10:51:26;;;;;;;;;;;;;;;-144.99;100.00;52582.63;4989334;28;20020;-74
2023/11/26 10:53:56;;;;;;;;;;;;;;;-144.99;100.00;52582.63;4974438;28;19940;-75
2023/11/26 10:56:33;;;;;;;;;;;;;;;-144.99;100.00;52537.78;4992899;28;19973;-75
2023/11/26 10:58:59;;;;;;;;;;;;;;;-144.99;100.00;52574.47;5005265;28;19926;-74
2023/11/26 11:01:26;;;;;;;;;;;;;;;-144.99;100.00;52574.47;4989738;28;20013;-74
2023/11/26 11:03:55;;;;;;;;;;;;;;;-144.99;100.00;52566.31;5019591;28;20001;-73
2023/11/26 11:06:23;;;;;;;;;;;;;;;-144.99;100.00;52586.69;4989570;28;20374;-74
2023/11/26 11:08:51;;;;;;;;;;;;;;;-144.99;100.00;52543.91;4998503;28;19926;-74
2023/11/26 11:11:22;;;;;;;;;;;;;;;-144.99;100.00;52574.47;4989644;28;20016;-74
2023/11/26 11:13:51;;;;;;;;;;;;;;;-144.99;100.00;52586.69;4994725;28;20008;-74
2023/11/26 11:16:18;;;;;;;;;;;;;;;-144.99;100.00;52545.94;4989897;28;19980;-74
2023/11/26 11:18:45;;;;;;;;;;;;;;;-144.99;100.00;52541.84;5005164;28;19984;-74
2023/11/26 11:21:12;;;;;;;;;;;;;;;-144.99;100.00;52590.78;5005124;28;19926;-74
2023/11/26 11:23:40;;;;;;;;;;;;;;;-144.99;100.00;52550.00;4996754;28;19936;-74
2023/11/26 11:26:07;;;;;;;;;;;;;;;-144.99;100.00;52554.09;4998207;28;19930;-74
2023/11/26 11:28:36;;;;;;;;;;;;;;;-144.99;100.00;52545.94;4998971;28;19976;-74
2023/11/26 11:31:05;;;;;;;;;;;;;;;-144.99;100.00;52582.63;4305345;28;10000717;-74
2023/11/26 11:33:31;;;;;;;;;;;;;;;-144.99;100.00;52541.84;5000550;28;20030;-75
2023/11/26 11:35:58;;;;;;;;;;;;;;;-144.99;100.00;52586.69;4993677;28;20514;-74
2023/11/26 11:38:26;;;;;;;;;;;;;;;-144.99;99.93;52574.47;4985195;28;20319;-74
2023/11/26 11:41:13;;;;;;;;;;;;;;;-144.99;99.05;52566.31;4997612;28;19971;-76
2023/11/26 11:43:40;;;;;;;;;;;;;;;-144.99;99.63;52558.16;4991295;28;19930;-74
2023/11/26 11:46:24;;;;;;;;;;;;;;;-144.99;98.59;52547.97;4992314;28;20020;-74
2023/11/26 11:48:59;;;;;;;;;;;;;;;-144.99;98.23;52570.38;4995582;28;19936;-74
2023/11/26 11:51:34;;;;;;;;;;;;;;;-144.99;97.55;52578.53;4989724;28;21339;-73
2023/11/26 11:54:12;;;;;;;;;;;;;;;-144.99;97.06;52525.56;4984919;28;20028;-73
2023/11/26 11:56:39;;;;;;;;;;;;;;;-144.99;96.86;52574.47;4985359;28;19937;-74
2023/11/26 11:59:06;;;;;;;;;;;;;;;-144.99;96.26;52550.00;4997071;28;20045;-73
2023/11/26 12:01:34;;;;;;;;;;;;;;;-144.99;95.17;52556.13;4984248;28;19957;-74
2023/11/26 12:04:02;;;;;;;;;;;;;;;-144.99;94.65;52545.94;4989333;28;19937;-74
2023/11/26 12:06:29;;;;;;;;;;;;;;;-144.99;92.30;52525.56;4991078;28;20039;-73
2023/11/26 12:08:55;;;;;;;;;;;;;;;-144.99;91.95;52554.09;4991685;28;20020;-73
2023/11/26 12:11:23;;;;;;;;;;;;;;;-144.99;92.30;52517.41;4985711;28;19954;-73
2023/11/26 12:13:49;;;;;;;;;;;;;;;-144.99;91.81;52576.50;4988023;28;20414;-73
2023/11/26 12:16:16;;;;;;;;;;;;;;;-144.99;90.21;52611.16;4995750;28;19925;-73
2023/11/26 12:18:43;;;;;;;;;;;;;;;-144.99;89.30;52550.00;5003081;28;20019;-72
2023/11/26 12:21:11;;;;;;;;;;;;;;;-144.99;90.14;52531.66;4998173;28;19929;-72
2023/11/26 12:23:38;;;;;;;;;;;;;;;-144.99;90.76;52562.25;4989546;28;19929;-72